Main page
METAR-TAF:

METAR-TAF

Airports :

Sumburgh, Shetland, Scotland

Sumburgh Airport

latitude: 59-53N, longitude: 001-18W, elevation: 5 m

Current weather observation

The report was made 31 minutes ago, at 04:20 UTC
Wind 14 kt from the East
Temperature 12°C
Humidity 94%
Pressure 1000 hPa
Visibility: 9000 m

METAR: EGPB 220420Z AUTO 09014KT 9000 BKN007/// 12/11 Q1000

Time: 05:51 (04:51 UTC)

Forecast

The report was made 2 hours and 49 minutes ago, at 02:02 UTC
Forecast valid from 22 at 03 UTC to 22 at 12 UTC
Wind 16 kt from the East
Visibility 10 km or more
Scattered clouds at a height of 1500 ft
Temporary
from 22 at 03 UTC to 22 at 12 UTC
Visibility: 6000 m
Broken clouds at a height of 600 ft
rain showers
Temporary
from 22 at 03 UTC to 22 at 06 UTC
Wind 20 kt from the East with gusts up to 30 kt

TAF: EGPB 220202Z 2203/2212 10016KT 9999 SCT015 TEMPO 2203/2212 6000 SHRA BKN006 TEMPO 2203/2206 10020G30KT

Weather observations and forecasts of more than 4000 airports (METAR and TAF reports).

The available stations are represented by yellow and red dots on the map.

Hover mouse over dot to see the name of the station.

Then click to see weather observations and forecasts.

To change the map : click on the green buttons with a black cross to zoom in, on the green button with a dash to zoom out, or on the green arrows for adjacent maps.


METAR-TAF: